Niagara District Airport
CYSN : now visible

Airfield :











YOU CAN JOIN US ON...

 
LOGIN :

Register | Disclaimer

   EN    FR    IT 

 









Legend :    VFR   Marginal VFR   IFR   Intensive IFR   Very Intensive IFR
Visi :
Ceiling :
>= 8 km
>= 3000ft
5 to 8 km
1000 to 3000 ft
1500m to 5 km
500 to 1000 ft
800 to 1500m
200 to 500 ft
< 800m
< 200 ft
Symbols :   Thunderstorms  Fog  Heavy snow  Heavy precipitations  Wind > 20 kt







- Airport Elevation : 321 ft
- IATA code : YCM


CYSN - Niagara District

CURRENT METAR :
  • 181900Z 34006KT 300V010 12SM SCT011 BKN030 27/25 A2992 RMK CF3SC2 SLP133 DENSITY ALT 1800FT

EXPIRED METARs :
  • 181830Z 35008KT 12SM FEW009 SCT032 BKN140 26/24 A2992 RMK CF2SC2AC1 SLP132 DENSITY ALT 1700FT
  • 181800Z 33008KT 12SM SCT025 BKN150 27/24 A2991 RMK SC3AC3 SLP130 DENSITY ALT 1800FT
  • 181700Z 33010KT 12SM SCT030 BKN200 27/24 A2991 RMK CU3CI4 SLP127 DENSITY ALT 1800FT

TAF TAF CYSN
Valid from the 18 at 20:00 until the 19 at 01:00 UTC


181942Z 1820/1901 34006KT P6SM SCT030
BECMG 1820/1822 VRB03KT RMK NXT FCST WILL BE ISSUED AT 191245Z
CZYZ FIR / North America



MET'MAP, your aeronautical weather chart ! - Copyright ORBIFLY December 2007 - Disclaimer

ORBIFLY MET'MAP TEAM :

Programming & Development : Alexandra Zaïnal
Concept & Development : Baudouin d'Aumeries
Co-Development & Prog : Marc-Olivier Méhu
Technical & hardware support : Manuel Goepfert

Contact : metmap@orbifly.com




SOURCES & CREDITS :

   NOAA       Earth
Advisory